Pagrindinis puslapis
METAR-TAF:

METAR-TAF

Oro uostai :

For de Fransas, Martinika

platuma: 14-36N, ilguma: 061-00W, Aukštis: 5 m

Dabartinis oras

Ataskaita buvo paskelbta 6 minutes, ne 08:30 UTC
Vėjas 3 kt iš Pietryčių
Temperatūra 20°C
Drėgmė 94%
Slėgis 1014 hPa
Matomumas 10 km arba daugiau
nėra debesų žemiau 1500 m ir nėra kamuolinių lietaus debesų

METAR: TFFF 230830Z AUTO 13003KT CAVOK 20/19 Q1014

Laikas: 04:36 (08:36 UTC)

Prognozė

Ataskaita buvo paskelbta 27 valandos ir 36 minutes, ne 05:00 UTC
Prognozė galioja nuo 22 metu 06 UTC su 23 metu 06 UTC
Vėjas 6 kt iš Rytų
Matomumas 10 km arba daugiau
Išsisklaidę debesys ne aukštis 3000 ft
Tikimybė 30% :
Laikinai
nuo 22 metu 06 UTC su 22 metu 12 UTC
Matomumas: 4000 m
Išsisklaidę debesys ne aukštis 2000 ft, aukštai iškilę kamuoliniai debesys.
lietus

TAF: TFFF 220500Z 2206/2306 08006KT 9999 SCT030 PROB30 TEMPO 2206/2212 4000 SHRA SCT020TCU

Orai ataskaitas ir orų prognozės (METAR, TAF).

turimą stotys yra geltonos ir raudonos taškus žemėlapyje.

Perkelti pele per norėdami pamatyti stoties vardą.

Tada spustelėkite, norėdami matyti oro stebėjimo ir prognozės.

Norėdami pakeisti žemėlapį: spustelėkite ant žalios mygtukų su juodo kryžiaus žemyn,; žalią mygtuką su brūkšneliu, jei norite nutolinti; arba žalių rodyklių gretimoms žemėlapius.


METAR-TAF: